Time;durP1;ratioP1;P1;durP2;ratioP2;P2;SDS_P1;SDS_P2;PMS_P1;PMS_P2;Temp;Humidity;BMP_temperature;BMP_pressure;BME280_temperature;BME280_humidity;BME280_pressure;Samples;Min_cycle;Max_cycle;Signal;HPM_P1;HPM_P2
2023/04/07 00:00:14;;;;;;;12.35;3.03;;;13.40;80.90;;;;;;7383841;19;20082;-70
2023/04/07 00:02:43;;;;;;;23.58;3.00;;;13.40;81.50;;;;;;7401949;19;20010;-70
2023/04/07 00:05:12;;;;;;;14.75;2.20;;;13.40;81.40;;;;;;7380348;19;19999;-70
2023/04/07 00:07:41;;;;;;;13.43;2.55;;;13.30;81.80;;;;;;7380886;19;20007;-70
2023/04/07 00:10:12;;;;;;;11.35;2.17;;;13.30;82.20;;;;;;7381289;19;20072;-70
2023/04/07 00:12:41;;;;;;;11.95;1.95;;;13.30;82.10;;;;;;7379110;19;20021;-70
2023/04/07 00:15:11;;;;;;;15.85;2.90;;;13.30;82.00;;;;;;7378943;19;20014;-70
2023/04/07 00:17:39;;;;;;;15.07;2.08;;;13.30;82.50;;;;;;7402033;19;20054;-71
2023/04/07 00:20:09;;;;;;;18.13;2.40;;;13.40;82.70;;;;;;7380089;19;20304;-70
2023/04/07 00:22:38;;;;;;;17.58;2.67;;;13.40;82.70;;;;;;7379953;19;20070;-70
2023/04/07 00:25:08;;;;;;;18.35;2.40;;;13.40;83.00;;;;;;7380742;19;20020;-70
2023/04/07 00:27:39;;;;;;;14.02;2.00;;;13.30;83.70;;;;;;7380501;19;20006;-70
2023/04/07 00:30:09;;;;;;;13.40;2.03;;;13.30;84.20;;;;;;7380100;19;20016;-70
2023/04/07 00:32:38;;;;;;;10.00;2.00;;;13.20;84.60;;;;;;7400578;19;20326;-70
2023/04/07 00:35:08;;;;;;;16.63;2.50;;;13.20;84.90;;;;;;7379853;19;20003;-70
2023/04/07 00:37:36;;;;;;;19.33;2.75;;;13.20;84.90;;;;;;7380911;19;20010;-70
2023/04/07 00:40:06;;;;;;;18.20;2.75;;;13.20;84.60;;;;;;7380810;19;20067;-70
2023/04/07 00:42:35;;;;;;;13.63;2.25;;;13.20;85.00;;;;;;7379515;19;20010;-70
2023/04/07 00:45:08;;;;;;;15.13;2.67;;;13.30;85.10;;;;;;7377797;19;20375;-70
2023/04/07 00:47:37;;;;;;;18.02;2.97;;;13.30;84.90;;;;;;7400934;19;20365;-70
2023/04/07 00:50:07;;;;;;;16.40;3.17;;;13.30;84.90;;;;;;7379178;19;20003;-70
2023/04/07 00:52:35;;;;;;;15.55;2.05;;;13.40;85.00;;;;;;7379457;19;20006;-71
2023/04/07 00:55:04;;;;;;;19.67;2.28;;;13.40;84.70;;;;;;7379535;19;20009;-70
2023/04/07 00:57:33;;;;;;;15.82;2.33;;;13.50;84.70;;;;;;7379647;19;20010;-70
2023/04/07 01:00:02;;;;;;;15.80;2.50;;;13.40;84.70;;;;;;7378807;19;20019;-70
2023/04/07 01:02:38;;;;;;;16.30;2.55;;;13.40;84.50;;;;;;7397270;19;20031;-70
2023/04/07 01:05:14;;;;;;;17.38;2.30;;;13.50;84.70;;;;;;7378920;19;20276;-70
2023/04/07 01:07:54;;;;;;;18.00;2.47;;;13.40;84.80;;;;;;7378708;19;20003;-70
2023/04/07 01:10:29;;;;;;;17.10;2.42;;;13.40;84.90;;;;;;7379593;19;20003;-70
2023/04/07 01:13:04;;;;;;;13.48;1.83;;;13.30;85.30;;;;;;7378027;19;20022;-71
2023/04/07 01:15:35;;;;;;;13.35;2.92;;;13.30;85.50;;;;;;7377843;19;20007;-71
2023/04/07 01:18:12;;;;;;;9.95;2.28;;;13.30;85.60;;;;;;7377378;19;20019;-71
2023/04/07 01:20:42;;;;;;;14.48;3.28;;;13.20;85.80;;;;;;7398413;19;20011;-71
2023/04/07 01:23:15;;;;;;;16.50;2.72;;;13.30;85.80;;;;;;7378401;19;20075;-71
2023/04/07 01:25:59;;;;;;;21.13;2.55;;;13.40;85.80;;;;;;7378296;19;20015;-70
2023/04/07 01:28:56;;;;;;;17.08;2.47;;;13.30;85.60;;;;;;7378636;19;20220;-70
2023/04/07 01:31:28;;;;;;;9.85;1.92;;;13.40;85.50;;;;;;7378660;19;20023;-71
2023/04/07 01:33:59;;;;;;;8.07;2.25;;;13.50;85.40;;;;;;7377381;19;20030;-71
2023/04/07 01:36:30;;;;;;;8.17;2.00;;;13.50;85.20;;;;;;7377571;19;20006;-70
2023/04/07 01:39:01;;;;;;;15.50;2.63;;;13.50;85.10;;;;;;7383736;19;20268;-70
2023/04/07 01:41:30;;;;;;;20.77;2.13;;;13.50;85.00;;;;;;7399379;19;20358;-70
2023/04/07 01:44:00;;;;;;;17.42;2.63;;;13.50;85.00;;;;;;7377072;19;20003;-70
2023/04/07 01:46:32;;;;;;;9.60;2.13;;;13.40;85.20;;;;;;7377485;19;20003;-70
2023/04/07 01:49:01;;;;;;;13.15;2.67;;;13.50;85.30;;;;;;7377960;19;20015;-70
2023/04/07 01:51:32;;;;;;;20.48;2.55;;;13.40;85.20;;;;;;7378030;19;20020;-70
2023/04/07 01:54:01;;;;;;;29.38;2.92;;;13.50;85.20;;;;;;7375834;19;20006;-70
2023/04/07 01:56:30;;;;;;;19.85;2.53;;;13.40;85.40;;;;;;7398530;19;20289;-70
2023/04/07 01:58:58;;;;;;;14.25;2.40;;;13.30;85.60;;;;;;7376272;19;20011;-70
2023/04/07 02:01:27;;;;;;;12.43;2.60;;;13.30;85.70;;;;;;7377411;19;20015;-70
2023/04/07 02:04:04;;;;;;;15.18;2.42;;;13.30;85.90;;;;;;7377169;19;20011;-70
2023/04/07 02:06:36;;;;;;;13.50;2.50;;;13.20;86.20;;;;;;7377924;19;20003;-70
2023/04/07 02:09:08;;;;;;;21.27;3.35;;;13.20;86.20;;;;;;7375847;19;20058;-70
2023/04/07 02:11:39;;;;;;;16.33;2.90;;;13.20;86.10;;;;;;7398959;19;20010;-70
2023/04/07 02:14:09;;;;;;;24.63;2.43;;;13.20;86.00;;;;;;7382536;19;20010;-70
2023/04/07 02:16:40;;;;;;;12.83;2.47;;;13.20;86.90;;;;;;7384171;19;20080;-70
2023/04/07 02:19:12;;;;;;;12.00;2.20;;;13.20;86.30;;;;;;7383622;19;20438;-70
2023/04/07 02:21:41;;;;;;;;;;;13.20;86.10;;;;;;7385312;19;20270;-70
2023/04/07 02:24:12;;;;;;;17.25;2.58;;;13.20;86.10;;;;;;7382341;19;20235;-70
2023/04/07 02:26:41;;;;;;;13.70;2.83;;;13.20;86.10;;;;;;7407032;19;20023;-70
2023/04/07 02:29:10;;;;;;;9.73;2.55;;;13.20;85.90;;;;;;7383823;19;20024;-70
2023/04/07 02:31:41;;;;;;;;;;;13.20;86.40;;;;;;7384668;19;20034;-70
2023/04/07 02:34:12;;;;;;;19.58;2.97;;;13.10;86.60;;;;;;7385717;19;19919;-70
2023/04/07 02:36:41;;;;;;;14.02;2.80;;;13.00;86.00;;;;;;7384026;19;20023;-70
2023/04/07 02:39:11;;;;;;;12.25;3.05;;;13.00;86.20;;;;;;7382964;19;20409;-71
2023/04/07 02:41:39;;;;;;;15.45;3.35;;;12.90;87.00;;;;;;7402986;19;20007;-70
2023/04/07 02:44:08;;;;;;;21.70;3.65;;;12.70;87.10;;;;;;7383096;19;20363;-70
2023/04/07 02:46:37;;;;;;;16.92;3.10;;;12.80;87.50;;;;;;7382878;19;20089;-70
2023/04/07 02:49:05;;;;;;;20.30;2.80;;;12.80;87.80;;;;;;7384027;19;20007;-71
2023/04/07 02:51:37;;;;;;;16.42;2.80;;;12.70;87.90;;;;;;7384030;19;20007;-71
2023/04/07 02:54:05;;;;;;;11.15;2.58;;;12.70;88.00;;;;;;7383702;19;20018;-70
2023/04/07 02:56:34;;;;;;;16.10;3.20;;;12.70;87.80;;;;;;7404913;19;20020;-71
2023/04/07 02:59:03;;;;;;;17.60;3.30;;;12.70;88.10;;;;;;7381736;19;19999;-71
2023/04/07 03:01:33;;;;;;;18.83;3.17;;;12.70;88.10;;;;;;7382395;19;20016;-70
2023/04/07 03:04:02;;;;;;;20.88;3.80;;;12.60;88.20;;;;;;7381944;19;20011;-70
2023/04/07 03:06:31;;;;;;;21.20;3.35;;;12.70;88.30;;;;;;7381340;19;20070;-71
2023/04/07 03:09:03;;;;;;;20.90;3.58;;;12.70;88.30;;;;;;7380566;19;20035;-71
2023/04/07 03:11:32;;;;;;;20.52;3.65;;;12.60;88.20;;;;;;7405148;19;20030;-71
2023/04/07 03:14:00;;;;;;;14.45;3.17;;;12.60;88.10;;;;;;7382378;19;20007;-71
2023/04/07 03:16:29;;;;;;;20.92;3.88;;;12.60;87.90;;;;;;7382777;19;20010;-71
2023/04/07 03:18:58;;;;;;;20.65;3.85;;;12.60;88.00;;;;;;7380734;19;20010;-70
2023/04/07 03:21:27;;;;;;;14.52;3.15;;;12.60;88.00;;;;;;7380650;19;20406;-70
2023/04/07 03:23:56;;;;;;;13.00;3.08;;;12.60;87.90;;;;;;7400432;19;20377;-70
2023/04/07 03:26:27;;;;;;;17.55;3.38;;;12.60;87.80;;;;;;7382171;19;20055;-70
2023/04/07 03:28:56;;;;;;;20.92;3.53;;;12.60;87.90;;;;;;7381244;19;20182;-71
2023/04/07 03:31:25;;;;;;;18.85;3.25;;;12.60;87.80;;;;;;7383047;19;20015;-71
2023/04/07 03:33:53;;;;;;;21.67;3.38;;;12.70;87.80;;;;;;7383100;19;20009;-71
2023/04/07 03:36:23;;;;;;;16.20;3.28;;;12.70;87.60;;;;;;7383328;19;20010;-70
2023/04/07 03:38:52;;;;;;;23.65;3.55;;;12.70;87.50;;;;;;7402485;19;20015;-71
2023/04/07 03:41:20;;;;;;;23.60;3.60;;;12.70;87.40;;;;;;7382189;19;20027;-71
2023/04/07 03:43:52;;;;;;;15.15;3.35;;;12.70;86.70;;;;;;7382049;19;20033;-71
2023/04/07 03:46:21;;;;;;;24.77;3.70;;;12.70;86.30;;;;;;7381904;19;20007;-71
2023/04/07 03:48:50;;;;;;;12.43;3.25;;;12.70;85.90;;;;;;7381894;19;20082;-71
2023/04/07 03:51:20;;;;;;;14.45;2.90;;;12.70;85.60;;;;;;7381016;19;20036;-71
2023/04/07 03:53:49;;;;;;;19.42;3.40;;;12.70;85.30;;;;;;7400972;19;20392;-70
2023/04/07 03:56:18;;;;;;;21.38;3.85;;;12.70;85.20;;;;;;7382537;19;20235;-71
2023/04/07 03:58:47;;;;;;;28.50;5.88;;;12.60;85.00;;;;;;7382788;19;20078;-71
2023/04/07 04:01:19;;;;;;;17.92;5.07;;;12.60;84.60;;;;;;7383610;19;20014;-71
2023/04/07 04:03:48;;;;;;;13.75;3.97;;;12.60;84.80;;;;;;7382157;19;20015;-70
2023/04/07 04:06:17;;;;;;;12.60;3.60;;;12.60;84.70;;;;;;7381318;19;20015;-70
2023/04/07 04:08:45;;;;;;;19.55;4.07;;;12.60;84.30;;;;;;7402334;19;20063;-70
2023/04/07 04:11:14;;;;;;;17.10;4.60;;;12.50;84.10;;;;;;7380487;19;20414;-70
2023/04/07 04:13:43;;;;;;;20.95;4.07;;;12.50;84.00;;;;;;7380239;19;20390;-70
2023/04/07 04:16:12;;;;;;;12.40;3.55;;;12.40;83.60;;;;;;7381143;19;20007;-70
2023/04/07 04:18:43;;;;;;;13.95;3.60;;;12.20;84.70;;;;;;7379488;19;20024;-70
2023/04/07 04:21:12;;;;;;;17.88;3.40;;;12.20;85.00;;;;;;7381365;19;20010;-70
2023/04/07 04:23:40;;;;;;;13.60;2.78;;;12.20;84.80;;;;;;7400399;19;20300;-70
2023/04/07 04:26:10;;;;;;;14.45;3.47;;;12.20;84.70;;;;;;7380264;19;20007;-70
2023/04/07 04:28:39;;;;;;;19.70;3.80;;;12.20;84.80;;;;;;7382979;19;20217;-70
2023/04/07 04:31:07;;;;;;;24.50;4.22;;;12.10;84.80;;;;;;7379791;19;20010;-70
2023/04/07 04:33:36;;;;;;;16.13;3.92;;;12.10;85.00;;;;;;7379886;19;20074;-70
2023/04/07 04:36:08;;;;;;;13.45;3.58;;;12.10;85.10;;;;;;7375929;19;20011;-70
2023/04/07 04:38:37;;;;;;;14.55;3.40;;;12.10;84.90;;;;;;7401397;19;20058;-70
2023/04/07 04:41:06;;;;;;;10.88;3.65;;;12.10;84.20;;;;;;7379422;19;20002;-71
2023/04/07 04:43:34;;;;;;;15.75;3.50;;;12.10;83.80;;;;;;7380824;19;19999;-71
2023/04/07 04:46:03;;;;;;;17.63;3.70;;;12.00;83.70;;;;;;7380460;19;20019;-70
2023/04/07 04:48:32;;;;;;;20.48;3.70;;;12.00;83.80;;;;;;7379500;19;20012;-70
2023/04/07 04:51:00;;;;;;;14.20;2.78;;;12.00;84.10;;;;;;7380555;19;20387;-70
2023/04/07 04:53:32;;;;;;;21.85;3.92;;;12.10;83.80;;;;;;7401776;19;20031;-70
2023/04/07 04:56:00;;;;;;;19.55;3.97;;;12.00;83.80;;;;;;7379360;19;20011;-70
2023/04/07 04:58:30;;;;;;;19.55;4.10;;;11.90;83.90;;;;;;7379062;19;19999;-70
2023/04/07 05:00:59;;;;;;;16.10;3.80;;;11.80;84.10;;;;;;7378518;19;20003;-70
2023/04/07 05:03:29;;;;;;;19.40;4.30;;;11.70;84.70;;;;;;7378120;19;20006;-71
2023/04/07 05:05:58;;;;;;;25.27;4.20;;;11.70;85.10;;;;;;7395871;19;20075;-71
2023/04/07 05:08:27;;;;;;;20.50;4.38;;;11.50;85.90;;;;;;7400057;19;20063;-71
2023/04/07 05:10:58;;;;;;;19.52;4.38;;;11.40;86.10;;;;;;7379551;19;20060;-70
2023/04/07 05:13:29;;;;;;;24.55;4.35;;;11.40;86.10;;;;;;7378752;19;20007;-70
2023/04/07 05:15:58;;;;;;;15.45;4.65;;;11.40;85.80;;;;;;7379152;19;20002;-71
2023/04/07 05:18:26;;;;;;;13.75;4.03;;;11.40;86.20;;;;;;7378494;19;20059;-71
2023/04/07 05:20:55;;;;;;;18.52;4.50;;;11.50;86.10;;;;;;7399013;19;20012;-71
2023/04/07 05:23:24;;;;;;;19.75;4.55;;;11.50;85.90;;;;;;7378376;19;20020;-71
2023/04/07 05:25:52;;;;;;;27.35;4.95;;;11.40;85.90;;;;;;7377943;19;20062;-72
2023/04/07 05:28:24;;;;;;;23.13;4.88;;;11.30;86.20;;;;;;7378218;19;20489;-71
2023/04/07 05:30:53;;;;;;;15.10;4.53;;;11.30;86.40;;;;;;7377578;19;20006;-71
2023/04/07 05:33:22;;;;;;;21.83;4.63;;;11.30;86.40;;;;;;7378384;19;20006;-70
2023/04/07 05:35:50;;;;;;;24.80;6.15;;;11.30;87.30;;;;;;7400120;19;20020;-71
2023/04/07 05:38:19;;;;;;;14.65;4.60;;;11.30;86.80;;;;;;7378002;19;20010;-71
2023/04/07 05:40:48;;;;;;;24.38;5.65;;;11.30;87.10;;;;;;7376882;19;20066;-70
2023/04/07 05:43:17;;;;;;;14.55;4.38;;;11.40;87.40;;;;;;7378367;19;20011;-70
2023/04/07 05:45:49;;;;;;;21.58;4.85;;;11.40;87.20;;;;;;7378242;19;20082;-71
2023/04/07 05:48:17;;;;;;;18.10;4.97;;;11.50;87.50;;;;;;7377534;19;21364;-71
2023/04/07 05:50:46;;;;;;;20.38;6.53;;;11.50;87.30;;;;;;7400209;19;20078;-71
2023/04/07 05:53:15;;;;;;;21.73;5.10;;;11.60;86.90;;;;;;7377791;19;20068;-71
2023/04/07 05:55:44;;;;;;;23.15;5.53;;;11.60;86.80;;;;;;7377603;19;20314;-70
2023/04/07 05:58:13;;;;;;;20.08;5.93;;;11.60;87.10;;;;;;7378735;19;20373;-71
2023/04/07 06:00:42;;;;;;;19.30;5.57;;;11.70;87.40;;;;;;7380058;19;20006;-71
2023/04/07 06:03:13;;;;;;;27.40;6.75;;;11.80;87.50;;;;;;7379679;19;20046;-70
2023/04/07 06:05:42;;;;;;;31.35;9.05;;;11.90;87.60;;;;;;7399506;19;20058;-71
2023/04/07 06:08:11;;;;;;;28.73;9.52;;;11.70;88.60;;;;;;7378620;19;20011;-71
2023/04/07 06:10:40;;;;;;;33.78;9.82;;;11.60;89.90;;;;;;7377490;19;20082;-72
2023/04/07 06:13:09;;;;;;;36.50;10.65;;;11.60;90.10;;;;;;7378192;19;20007;-71
2023/04/07 06:15:37;;;;;;;44.53;11.88;;;11.70;90.30;;;;;;7376721;19;20027;-70
2023/04/07 06:18:06;;;;;;;33.72;11.75;;;11.50;90.50;;;;;;7378833;19;20007;-70
2023/04/07 06:20:37;;;;;;;45.10;12.45;;;11.50;90.80;;;;;;7399519;19;20015;-71
2023/04/07 06:23:06;;;;;;;35.33;11.50;;;11.40;90.90;;;;;;7377929;19;20062;-70
2023/04/07 06:25:35;;;;;;;35.72;11.38;;;11.50;91.00;;;;;;7376447;19;20050;-71
2023/04/07 06:28:04;;;;;;;46.28;13.13;;;11.50;91.00;;;;;;7377533;19;20069;-71
2023/04/07 06:30:33;;;;;;;33.90;12.50;;;11.50;91.00;;;;;;7375212;19;20011;-71
2023/04/07 06:33:01;;;;;;;43.22;11.85;;;11.70;91.00;;;;;;7377224;19;20070;-71
2023/04/07 06:35:30;;;;;;;28.65;11.63;;;11.70;91.00;;;;;;7397502;19;20238;-71
2023/04/07 06:38:02;;;;;;;36.38;12.07;;;11.90;90.90;;;;;;7375737;19;20006;-71
2023/04/07 06:40:31;;;;;;;36.28;12.18;;;11.90;90.90;;;;;;7377078;19;20077;-71
2023/04/07 06:42:59;;;;;;;36.60;12.30;;;12.00;90.80;;;;;;7378707;19;20406;-71
2023/04/07 06:45:28;;;;;;;39.88;13.25;;;12.00;90.80;;;;;;7376118;19;20013;-71
2023/04/07 06:47:57;;;;;;;33.08;12.50;;;11.80;91.20;;;;;;7395704;19;20417;-71
2023/04/07 06:50:25;;;;;;;40.50;12.95;;;11.70;91.00;;;;;;7375986;19;20002;-71
2023/04/07 06:52:54;;;;;;;36.15;13.43;;;11.70;91.20;;;;;;7375005;19;20011;-71
2023/04/07 06:55:26;;;;;;;39.70;14.18;;;11.70;91.30;;;;;;7376574;19;20006;-71
2023/04/07 06:57:54;;;;;;;43.75;14.52;;;11.40;91.90;;;;;;7374533;19;20006;-71
2023/04/07 07:00:24;;;;;;;30.65;12.90;;;11.50;91.90;;;;;;7380604;19;20027;-71
2023/04/07 07:02:53;;;;;;;38.17;14.98;;;11.40;91.80;;;;;;7402381;19;20032;-71
2023/04/07 07:05:22;;;;;;;39.67;15.55;;;11.40;92.00;;;;;;7382349;19;20003;-72
2023/04/07 07:07:50;;;;;;;33.75;15.27;;;11.50;91.90;;;;;;7382721;19;20033;-71
2023/04/07 07:10:21;;;;;;;38.75;16.13;;;11.70;91.70;;;;;;7381975;19;20305;-76
2023/04/07 07:12:53;;;;;;;36.63;16.50;;;11.60;91.80;;;;;;7384429;19;20300;-71
2023/04/07 07:15:23;;;;;;;37.60;15.57;;;11.70;91.90;;;;;;7385463;19;20011;-73
2023/04/07 07:17:52;;;;;;;32.43;14.10;;;11.90;91.80;;;;;;7403730;19;20019;-72
2023/04/07 07:20:22;;;;;;;34.72;14.98;;;12.10;91.70;;;;;;7381227;19;20340;-74
2023/04/07 07:22:51;;;;;;;38.08;15.50;;;12.20;91.50;;;;;;7382220;19;20021;-73
2023/04/07 07:25:20;;;;;;;37.95;15.15;;;12.30;91.10;;;;;;7382725;19;20006;-73
2023/04/07 07:27:52;;;;;;;38.53;14.57;;;12.40;90.90;;;;;;7383539;19;20014;-73
2023/04/07 07:30:24;;;;;;;37.72;14.38;;;12.20;90.90;;;;;;7384063;19;20014;-73
2023/04/07 07:32:54;;;;;;;35.55;13.48;;;12.10;90.90;;;;;;7403319;19;20011;-72
2023/04/07 07:35:24;;;;;;;33.97;13.65;;;12.10;91.20;;;;;;7382663;19;20003;-73
2023/04/07 07:37:53;;;;;;;31.33;13.13;;;12.20;91.00;;;;;;7381791;19;20006;-73
2023/04/07 07:40:22;;;;;;;30.63;13.40;;;12.20;91.50;;;;;;7382146;19;20102;-73
2023/04/07 07:42:51;;;;;;;39.00;14.32;;;12.30;91.20;;;;;;7382667;19;20081;-73
2023/04/07 07:45:19;;;;;;;29.70;13.40;;;12.40;90.80;;;;;;7382733;19;20003;-73
2023/04/07 07:47:51;;;;;;;28.63;13.13;;;12.30;90.60;;;;;;7401345;19;20027;-73
2023/04/07 07:50:20;;;;;;;27.08;12.63;;;12.50;90.50;;;;;;7381382;19;20007;-75
2023/04/07 07:52:49;;;;;;;28.63;13.15;;;12.50;90.40;;;;;;7380479;19;19998;-71
2023/04/07 07:55:18;;;;;;;39.63;13.45;;;12.40;90.30;;;;;;7380279;19;19999;-72
2023/04/07 07:57:46;;;;;;;34.00;13.50;;;12.40;90.50;;;;;;7381312;19;20017;-70
2023/04/07 08:00:16;;;;;;;33.03;13.63;;;12.30;90.40;;;;;;7380695;19;20064;-72
2023/04/07 08:02:45;;;;;;;34.00;13.63;;;12.20;90.70;;;;;;7400190;19;20368;-71
2023/04/07 08:05:16;;;;;;;26.88;12.70;;;12.30;90.60;;;;;;7380426;19;20070;-71
2023/04/07 08:07:45;;;;;;;;;;;12.30;90.60;;;;;;7381400;19;20242;-74
2023/04/07 08:10:14;;;;;;;34.03;13.65;;;12.30;90.50;;;;;;7380986;19;19958;-73
2023/04/07 08:12:43;;;;;;;35.55;13.35;;;12.20;90.60;;;;;;7380592;19;20688;-73
2023/04/07 08:15:12;;;;;;;31.42;13.85;;;12.30;90.60;;;;;;7378618;19;20236;-74
2023/04/07 08:17:41;;;;;;;31.08;13.82;;;12.60;90.50;;;;;;7400154;19;20014;-74
2023/04/07 08:20:11;;;;;;;31.77;13.20;;;12.50;90.50;;;;;;7380070;19;20027;-71
2023/04/07 08:22:43;;;;;;;30.48;12.27;;;12.50;90.40;;;;;;7380344;19;20010;-72
2023/04/07 08:25:12;;;;;;;31.58;13.43;;;12.60;90.40;;;;;;7379854;19;20002;-72
2023/04/07 08:27:41;;;;;;;28.42;13.18;;;12.70;90.40;;;;;;7380343;19;20024;-71
2023/04/07 08:30:10;;;;;;;34.55;13.05;;;12.60;90.20;;;;;;7378992;19;20066;-71
2023/04/07 08:32:40;;;;;;;28.95;13.50;;;12.70;90.40;;;;;;7399335;19;20007;-71
2023/04/07 08:35:10;;;;;;;28.55;12.52;;;12.60;90.30;;;;;;7379197;19;20504;-70
2023/04/07 08:37:43;;;;;;;29.63;13.23;;;12.50;90.10;;;;;;7379206;19;20006;-70
2023/04/07 08:40:13;;;;;;;26.85;11.85;;;12.70;90.10;;;;;;7380227;19;20031;-71
2023/04/07 08:42:44;;;;;;;33.97;12.85;;;12.60;90.20;;;;;;7378677;19;20028;-71
2023/04/07 08:45:15;;;;;;;28.83;12.70;;;12.90;89.90;;;;;;7378182;19;20354;-71
2023/04/07 08:47:45;;;;;;;26.58;11.98;;;12.90;89.90;;;;;;7401875;19;20003;-72
2023/04/07 08:50:14;;;;;;;28.17;11.95;;;13.00;89.60;;;;;;7380011;19;20006;-72
2023/04/07 08:52:47;;;;;;;31.17;12.18;;;13.10;89.70;;;;;;7379629;19;20350;-71
2023/04/07 08:55:16;;;;;;;30.38;11.88;;;13.20;88.80;;;;;;7383177;19;20013;-72
2023/04/07 08:57:45;;;;;;;28.55;12.00;;;13.30;88.60;;;;;;7380771;19;20044;-72
2023/04/07 09:00:16;;;;;;;32.63;12.55;;;13.30;88.00;;;;;;7378030;19;20019;-72
2023/04/07 09:02:47;;;;;;;27.52;12.38;;;13.40;88.10;;;;;;7398411;19;20011;-72
2023/04/07 09:05:16;;;;;;;25.98;11.93;;;13.40;87.90;;;;;;7379112;19;20007;-71
2023/04/07 09:07:47;;;;;;;33.95;11.18;;;13.60;87.70;;;;;;7378590;19;20018;-71
2023/04/07 09:10:17;;;;;;;29.48;11.63;;;13.50;87.90;;;;;;7379078;19;19998;-71
2023/04/07 09:12:46;;;;;;;29.00;10.77;;;13.50;87.70;;;;;;7379647;19;20063;-71
2023/04/07 09:15:15;;;;;;;28.13;11.10;;;13.60;87.30;;;;;;7378594;19;20373;-71
2023/04/07 09:17:43;;;;;;;20.30;9.93;;;13.70;86.80;;;;;;7398627;19;20087;-71
2023/04/07 09:20:13;;;;;;;35.13;11.93;;;13.80;86.80;;;;;;7378021;19;20015;-71
2023/04/07 09:22:44;;;;;;;25.45;10.40;;;13.70;86.60;;;;;;7376026;19;20296;-71
2023/04/07 09:25:18;;;;;;;24.63;10.05;;;13.70;86.60;;;;;;7378940;19;20002;-72
2023/04/07 09:28:00;;;;;;;18.23;9.15;;;13.70;86.30;;;;;;7379683;19;20027;-71
2023/04/07 09:30:29;;;;;;;30.38;9.73;;;13.80;85.80;;;;;;7378549;19;20003;-71
2023/04/07 09:32:59;;;;;;;25.40;8.63;;;14.00;85.50;;;;;;7393413;19;20279;-71
2023/04/07 09:35:28;;;;;;;17.45;8.40;;;13.90;84.80;;;;;;7399686;19;20267;-71
2023/04/07 09:38:07;;;;;;;25.00;11.55;;;14.00;84.50;;;;;;7377511;19;20010;-71
2023/04/07 09:40:39;;;;;;;22.55;8.00;;;14.10;85.40;;;;;;7377519;19;20374;-71
2023/04/07 09:43:08;;;;;;;17.20;7.78;;;14.10;83.30;;;;;;7377396;19;20013;-71
2023/04/07 09:45:38;;;;;;;20.38;7.45;;;14.30;83.30;;;;;;7378053;19;20391;-71
2023/04/07 09:48:10;;;;;;;22.30;6.93;;;14.20;83.40;;;;;;7377465;19;20027;-71
2023/04/07 09:50:48;;;;;;;20.83;6.57;;;14.30;82.40;;;;;;7398794;19;20011;-71
2023/04/07 09:53:18;;;;;;;11.95;4.95;;;14.20;82.40;;;;;;7377280;19;19999;-71
2023/04/07 09:55:50;;;;;;;11.23;5.03;;;13.80;79.60;;;;;;7377408;19;20006;-71
2023/04/07 09:58:19;;;;;;;10.63;4.68;;;13.70;78.50;;;;;;7378146;19;20007;-71
2023/04/07 10:00:48;;;;;;;11.13;4.93;;;13.80;79.80;;;;;;7378945;19;20010;-72
2023/04/07 10:03:17;;;;;;;13.25;4.75;;;14.10;80.10;;;;;;7378875;19;20010;-71
2023/04/07 10:05:47;;;;;;;17.98;5.65;;;14.10;78.50;;;;;;7396830;19;20253;-71
2023/04/07 10:08:16;;;;;;;17.75;5.53;;;14.20;78.80;;;;;;7376629;19;20007;-71
2023/04/07 10:10:46;;;;;;;13.10;5.45;;;14.40;79.00;;;;;;7376808;19;20027;-71
2023/04/07 10:13:17;;;;;;;28.45;5.68;;;14.40;79.10;;;;;;7377233;19;20079;-71
2023/04/07 10:15:46;;;;;;;;;;;14.70;79.50;;;;;;7377880;19;20377;-71
2023/04/07 10:18:17;;;;;;;19.38;5.05;;;15.00;78.20;;;;;;7377262;19;19921;-72
2023/04/07 10:20:47;;;;;;;12.40;5.00;;;14.90;76.80;;;;;;7396295;19;20011;-72
2023/04/07 10:23:22;;;;;;;12.90;4.13;;;14.90;76.10;;;;;;7376427;19;20003;-72
2023/04/07 10:25:57;;;;;;;15.40;4.28;;;14.80;73.80;;;;;;7376951;19;20007;-72
2023/04/07 10:28:30;;;;;;;13.00;3.75;;;14.60;73.00;;;;;;7377425;19;20024;-70
2023/04/07 10:31:00;;;;;;;11.13;4.07;;;14.50;74.60;;;;;;7375618;19;20074;-72
2023/04/07 10:33:47;;;;;;;9.93;3.95;;;14.50;75.00;;;;;;7377721;19;20019;-72
2023/04/07 10:36:16;;;;;;;14.38;4.68;;;14.50;75.40;;;;;;7384298;19;20361;-71
2023/04/07 10:39:20;;;;;;;11.27;3.72;;;14.60;76.10;;;;;;7402736;19;20002;-72
2023/04/07 10:41:50;;;;;;;9.35;3.20;;;14.70;75.90;;;;;;7382502;19;20145;-71
2023/04/07 10:44:52;;;;;;;12.30;3.58;;;14.70;73.10;;;;;;7383765;19;20006;-72
2023/04/07 10:47:21;;;;;;;6.95;2.78;;;14.70;73.10;;;;;;7383694;19;20011;-71
2023/04/07 10:50:17;;;;;;;9.40;3.03;;;14.70;72.20;;;;;;7383276;19;20003;-71
2023/04/07 10:52:46;;;;;;;10.38;3.13;;;14.70;70.10;;;;;;7383552;19;20007;-72
2023/04/07 10:55:31;;;;;;;11.93;2.70;;;14.80;68.90;;;;;;7383882;19;20007;-73
2023/04/07 10:58:27;;;;;;;14.10;3.67;;;14.80;71.20;;;;;;7382175;19;20014;-72
2023/04/07 11:01:23;;;;;;;9.38;2.80;;;14.70;71.20;;;;;;7378969;19;20425;-71
2023/04/07 11:03:57;;;;;;;14.07;3.30;;;14.70;71.30;;;;;;7380758;19;20370;-71
2023/04/07 11:06:26;;;;;;;7.18;2.83;;;14.50;71.40;;;;;;7382502;19;20078;-71
2023/04/07 11:08:55;;;;;;;5.03;2.15;;;14.60;70.60;;;;;;7405348;19;20035;-71
2023/04/07 11:11:41;;;;;;;8.88;2.42;;;14.70;70.30;;;;;;7383161;19;20027;-71
2023/04/07 11:14:10;;;;;;;8.73;2.70;;;14.60;68.80;;;;;;7381570;19;20019;-72
2023/04/07 11:16:44;;;;;;;6.63;2.30;;;14.70;68.40;;;;;;7381120;19;20007;-72
2023/04/07 11:19:14;;;;;;;9.93;2.20;;;14.80;68.50;;;;;;7382140;19;20006;-72
2023/04/07 11:21:43;;;;;;;7.65;2.00;;;14.90;67.80;;;;;;7379099;19;20006;-73
2023/04/07 11:24:11;;;;;;;9.73;2.50;;;15.10;67.90;;;;;;7379311;19;20074;-73
2023/04/07 11:26:42;;;;;;;7.63;2.08;;;15.30;64.80;;;;;;7403088;19;20066;-71
2023/04/07 11:29:12;;;;;;;5.80;2.23;;;15.30;63.80;;;;;;7380408;19;20434;-71
2023/04/07 11:31:50;;;;;;;5.43;2.03;;;15.40;63.80;;;;;;7380087;19;20405;-72
2023/04/07 11:34:18;;;;;;;9.88;2.00;;;15.30;65.20;;;;;;7379976;19;20006;-70
2023/04/07 11:36:47;;;;;;;8.18;2.20;;;15.50;64.80;;;;;;7380327;19;20019;-70
2023/04/07 11:39:26;;;;;;;4.95;1.90;;;15.50;60.90;;;;;;7380839;19;20014;-71
2023/04/07 11:41:55;;;;;;;8.82;3.00;;;15.70;62.60;;;;;;7404221;19;20006;-71
2023/04/07 11:44:25;;;;;;;6.28;2.22;;;15.80;62.40;;;;;;7383024;19;20016;-71
2023/04/07 11:47:02;;;;;;;6.82;2.10;;;15.90;64.70;;;;;;7380783;19;20010;-71
2023/04/07 11:49:31;;;;;;;6.25;2.38;;;16.00;64.00;;;;;;7382912;19;20392;-71
2023/04/07 11:52:03;;;;;;;6.28;2.47;;;15.90;65.00;;;;;;7382652;19;20063;-71
2023/04/07 11:54:42;;;;;;;7.40;2.65;;;16.00;64.60;;;;;;7381559;19;20016;-70
2023/04/07 11:57:12;;;;;;;8.65;2.35;;;15.90;63.30;;;;;;7380056;19;20013;-71
2023/04/07 11:59:41;;;;;;;11.77;2.60;;;16.00;64.80;;;;;;7402892;19;20369;-70
2023/04/07 12:02:13;;;;;;;6.50;2.42;;;16.10;64.10;;;;;;7380674;19;20016;-71
2023/04/07 12:04:57;;;;;;;6.88;2.78;;;16.20;64.40;;;;;;7380950;19;20031;-71
2023/04/07 12:07:26;;;;;;;8.60;2.42;;;16.40;63.60;;;;;;7381747;19;20067;-71
2023/04/07 12:09:56;;;;;;;9.18;2.40;;;16.50;62.10;;;;;;7380245;19;20074;-71
2023/04/07 12:12:28;;;;;;;7.50;2.40;;;16.50;62.50;;;;;;7379747;19;20002;-71
2023/04/07 12:14:58;;;;;;;10.98;4.03;;;16.40;63.10;;;;;;7403810;19;20024;-70
2023/04/07 12:17:29;;;;;;;7.65;2.92;;;16.20;64.90;;;;;;7382853;19;19999;-71
2023/04/07 12:19:58;;;;;;;6.22;2.80;;;16.20;65.50;;;;;;7383418;19;20038;-70
2023/04/07 12:22:27;;;;;;;14.77;3.88;;;16.10;64.40;;;;;;7380290;19;20373;-70
2023/04/07 12:24:56;;;;;;;5.72;2.40;;;15.90;64.10;;;;;;7381075;19;20078;-71
2023/04/07 12:27:24;;;;;;;9.95;2.35;;;16.10;63.60;;;;;;7380562;19;20020;-71
2023/04/07 12:29:53;;;;;;;14.23;2.00;;;16.20;63.80;;;;;;7401140;19;20078;-70
2023/04/07 12:32:22;;;;;;;5.18;2.00;;;16.40;63.10;;;;;;7379928;19;20019;-69
2023/04/07 12:34:53;;;;;;;4.53;1.63;;;16.50;61.40;;;;;;7379186;19;20024;-70
2023/04/07 12:37:22;;;;;;;7.30;1.75;;;16.50;59.70;;;;;;7380614;19;20015;-70
2023/04/07 12:39:50;;;;;;;7.07;2.10;;;16.60;59.20;;;;;;7380545;19;20054;-69
2023/04/07 12:42:19;;;;;;;13.18;1.58;;;16.60;60.00;;;;;;7379863;19;20185;-70
2023/04/07 12:44:48;;;;;;;3.17;1.67;;;16.70;60.70;;;;;;7401273;19;20070;-70
2023/04/07 12:47:16;;;;;;;6.07;1.65;;;16.80;59.80;;;;;;7379361;19;20062;-70
2023/04/07 12:49:45;;;;;;;9.00;1.85;;;16.80;59.50;;;;;;7379217;19;20023;-70
2023/04/07 12:52:16;;;;;;;8.25;1.80;;;16.60;60.00;;;;;;7379279;19;20706;-71
2023/04/07 12:54:45;;;;;;;7.18;1.98;;;16.60;62.70;;;;;;7380161;19;20440;-71